sensor_id;sensor_type;location;lat;lon;timestamp;temperature;humidity
25328;DHT22;13279;51.300;12.394;2022-10-23T00:00:39;11.90;99.90
25328;DHT22;13279;51.300;12.394;2022-10-23T00:03:07;11.90;99.90
25328;DHT22;13279;51.300;12.394;2022-10-23T00:05:38;11.90;99.90
25328;DHT22;13279;51.300;12.394;2022-10-23T00:08:07;11.90;99.90
25328;DHT22;13279;51.300;12.394;2022-10-23T00:10:34;11.90;99.90
25328;DHT22;13279;51.300;12.394;2022-10-23T00:13:03;11.90;99.90
25328;DHT22;13279;51.300;12.394;2022-10-23T00:15:33;11.90;99.90
25328;DHT22;13279;51.300;12.394;2022-10-23T00:18:01;11.90;99.90
25328;DHT22;13279;51.300;12.394;2022-10-23T00:20:29;11.90;99.90
25328;DHT22;13279;51.300;12.394;2022-10-23T00:22:56;11.90;99.90
25328;DHT22;13279;51.300;12.394;2022-10-23T00:25:24;11.80;99.90
25328;DHT22;13279;51.300;12.394;2022-10-23T00:27:52;11.80;99.90
25328;DHT22;13279;51.300;12.394;2022-10-23T00:30:21;11.80;99.90
25328;DHT22;13279;51.300;12.394;2022-10-23T00:32:49;11.80;99.90
25328;DHT22;13279;51.300;12.394;2022-10-23T00:35:17;11.80;99.90
25328;DHT22;13279;51.300;12.394;2022-10-23T00:37:44;11.80;99.90
25328;DHT22;13279;51.300;12.394;2022-10-23T00:40:12;11.80;99.90
25328;DHT22;13279;51.300;12.394;2022-10-23T00:42:39;11.80;99.90
25328;DHT22;13279;51.300;12.394;2022-10-23T00:45:18;11.80;99.90
25328;DHT22;13279;51.300;12.394;2022-10-23T00:47:48;11.80;99.90
25328;DHT22;13279;51.300;12.394;2022-10-23T00:50:17;11.80;99.90
25328;DHT22;13279;51.300;12.394;2022-10-23T00:52:47;11.80;99.90
25328;DHT22;13279;51.300;12.394;2022-10-23T00:55:17;11.80;99.90
25328;DHT22;13279;51.300;12.394;2022-10-23T00:57:46;11.80;99.90
25328;DHT22;13279;51.300;12.394;2022-10-23T01:00:18;11.80;99.90
25328;DHT22;13279;51.300;12.394;2022-10-23T01:02:47;11.80;99.90
25328;DHT22;13279;51.300;12.394;2022-10-23T01:05:14;11.80;99.90
25328;DHT22;13279;51.300;12.394;2022-10-23T01:07:50;11.70;99.90
25328;DHT22;13279;51.300;12.394;2022-10-23T01:10:25;11.70;99.90
25328;DHT22;13279;51.300;12.394;2022-10-23T01:13:01;11.60;99.90
25328;DHT22;13279;51.300;12.394;2022-10-23T01:15:36;11.70;99.90
25328;DHT22;13279;51.300;12.394;2022-10-23T01:18:14;11.60;99.90
25328;DHT22;13279;51.300;12.394;2022-10-23T01:20:49;11.60;99.90
25328;DHT22;13279;51.300;12.394;2022-10-23T01:23:34;11.70;99.90
25328;DHT22;13279;51.300;12.394;2022-10-23T01:26:14;11.70;99.90
25328;DHT22;13279;51.300;12.394;2022-10-23T01:28:49;11.60;99.90
25328;DHT22;13279;51.300;12.394;2022-10-23T01:31:23;11.60;99.90
25328;DHT22;13279;51.300;12.394;2022-10-23T01:33:56;11.60;99.90
25328;DHT22;13279;51.300;12.394;2022-10-23T01:36:28;11.60;99.90
25328;DHT22;13279;51.300;12.394;2022-10-23T01:39:01;11.60;99.90
25328;DHT22;13279;51.300;12.394;2022-10-23T01:41:32;11.60;99.90
25328;DHT22;13279;51.300;12.394;2022-10-23T01:44:08;11.60;99.90
25328;DHT22;13279;51.300;12.394;2022-10-23T01:46:38;11.70;99.90
25328;DHT22;13279;51.300;12.394;2022-10-23T01:49:10;11.70;99.90
25328;DHT22;13279;51.300;12.394;2022-10-23T01:51:40;11.70;99.90
25328;DHT22;13279;51.300;12.394;2022-10-23T01:54:12;11.70;99.90
25328;DHT22;13279;51.300;12.394;2022-10-23T01:56:45;11.70;99.90
25328;DHT22;13279;51.300;12.394;2022-10-23T01:59:21;11.70;99.90
25328;DHT22;13279;51.300;12.394;2022-10-23T02:01:52;11.70;99.90
25328;DHT22;13279;51.300;12.394;2022-10-23T02:04:26;11.70;99.90
25328;DHT22;13279;51.300;12.394;2022-10-23T02:06:55;11.70;99.90
25328;DHT22;13279;51.300;12.394;2022-10-23T02:09:23;11.70;99.90
25328;DHT22;13279;51.300;12.394;2022-10-23T02:11:54;11.70;99.90
25328;DHT22;13279;51.300;12.394;2022-10-23T02:14:44;11.60;99.90
25328;DHT22;13279;51.300;12.394;2022-10-23T02:17:15;11.60;99.90
25328;DHT22;13279;51.300;12.394;2022-10-23T02:19:47;11.60;99.90
25328;DHT22;13279;51.300;12.394;2022-10-23T02:22:22;11.60;99.90
25328;DHT22;13279;51.300;12.394;2022-10-23T02:24:55;11.50;99.90
25328;DHT22;13279;51.300;12.394;2022-10-23T02:27:27;11.60;99.90
25328;DHT22;13279;51.300;12.394;2022-10-23T02:30:02;11.60;99.90
25328;DHT22;13279;51.300;12.394;2022-10-23T02:32:31;11.60;99.90
25328;DHT22;13279;51.300;12.394;2022-10-23T02:34:59;11.60;99.90
25328;DHT22;13279;51.300;12.394;2022-10-23T02:37:27;11.60;99.90
25328;DHT22;13279;51.300;12.394;2022-10-23T02:39:55;11.60;99.90
25328;DHT22;13279;51.300;12.394;2022-10-23T02:42:28;11.60;99.90
25328;DHT22;13279;51.300;12.394;2022-10-23T02:45:04;11.60;99.90
25328;DHT22;13279;51.300;12.394;2022-10-23T02:47:45;11.60;99.90
25328;DHT22;13279;51.300;12.394;2022-10-23T02:50:23;11.60;99.90
25328;DHT22;13279;51.300;12.394;2022-10-23T02:52:58;11.60;99.90
25328;DHT22;13279;51.300;12.394;2022-10-23T02:55:38;11.60;99.90
25328;DHT22;13279;51.300;12.394;2022-10-23T02:58:13;11.50;99.90
25328;DHT22;13279;51.300;12.394;2022-10-23T03:00:48;11.50;99.90
25328;DHT22;13279;51.300;12.394;2022-10-23T03:03:20;11.50;99.90
25328;DHT22;13279;51.300;12.394;2022-10-23T03:05:48;11.50;99.90
25328;DHT22;13279;51.300;12.394;2022-10-23T03:08:16;11.40;99.90
25328;DHT22;13279;51.300;12.394;2022-10-23T03:10:44;11.40;99.90
25328;DHT22;13279;51.300;12.394;2022-10-23T03:13:11;11.40;99.90
25328;DHT22;13279;51.300;12.394;2022-10-23T03:15:41;11.40;99.90
25328;DHT22;13279;51.300;12.394;2022-10-23T03:18:13;11.40;99.90
25328;DHT22;13279;51.300;12.394;2022-10-23T03:20:45;11.40;99.90
25328;DHT22;13279;51.300;12.394;2022-10-23T03:23:13;11.40;99.90
25328;DHT22;13279;51.300;12.394;2022-10-23T03:25:42;11.40;99.90
25328;DHT22;13279;51.300;12.394;2022-10-23T03:28:22;11.40;99.90
25328;DHT22;13279;51.300;12.394;2022-10-23T03:30:49;11.40;99.90
25328;DHT22;13279;51.300;12.394;2022-10-23T03:33:18;11.40;99.90
25328;DHT22;13279;51.300;12.394;2022-10-23T03:35:47;11.40;99.90
25328;DHT22;13279;51.300;12.394;2022-10-23T03:38:15;11.40;99.90
25328;DHT22;13279;51.300;12.394;2022-10-23T03:40:43;11.30;99.90
25328;DHT22;13279;51.300;12.394;2022-10-23T03:43:12;11.30;99.90
25328;DHT22;13279;51.300;12.394;2022-10-23T03:45:40;11.30;99.90
25328;DHT22;13279;51.300;12.394;2022-10-23T03:48:07;11.20;99.90
25328;DHT22;13279;51.300;12.394;2022-10-23T03:50:37;11.20;99.90
25328;DHT22;13279;51.300;12.394;2022-10-23T03:53:04;11.20;99.90
25328;DHT22;13279;51.300;12.394;2022-10-23T03:55:33;11.20;99.90
25328;DHT22;13279;51.300;12.394;2022-10-23T03:58:01;11.10;99.90
25328;DHT22;13279;51.300;12.394;2022-10-23T04:00:28;11.10;99.90
25328;DHT22;13279;51.300;12.394;2022-10-23T04:02:55;11.10;99.90
25328;DHT22;13279;51.300;12.394;2022-10-23T04:05:23;11.10;99.90
25328;DHT22;13279;51.300;12.394;2022-10-23T04:07:56;11.00;99.90
25328;DHT22;13279;51.300;12.394;2022-10-23T04:10:24;11.00;99.90
25328;DHT22;13279;51.300;12.394;2022-10-23T04:12:51;11.00;99.90
25328;DHT22;13279;51.300;12.394;2022-10-23T04:15:19;11.00;99.90
25328;DHT22;13279;51.300;12.394;2022-10-23T04:17:46;10.90;99.90
25328;DHT22;13279;51.300;12.394;2022-10-23T04:20:14;10.90;99.90
25328;DHT22;13279;51.300;12.394;2022-10-23T04:22:41;10.90;99.90
25328;DHT22;13279;51.300;12.394;2022-10-23T04:25:11;10.90;99.90
25328;DHT22;13279;51.300;12.394;2022-10-23T04:27:38;10.90;99.90
25328;DHT22;13279;51.300;12.394;2022-10-23T04:30:07;10.90;99.90
25328;DHT22;13279;51.300;12.394;2022-10-23T04:32:37;10.90;99.90
25328;DHT22;13279;51.300;12.394;2022-10-23T04:35:05;10.90;99.90
25328;DHT22;13279;51.300;12.394;2022-10-23T04:37:33;10.90;99.90
25328;DHT22;13279;51.300;12.394;2022-10-23T04:42:29;10.90;99.90
25328;DHT22;13279;51.300;12.394;2022-10-23T04:45:00;10.90;99.90
25328;DHT22;13279;51.300;12.394;2022-10-23T04:47:28;10.90;99.90
25328;DHT22;13279;51.300;12.394;2022-10-23T04:49:57;10.90;99.90
25328;DHT22;13279;51.300;12.394;2022-10-23T04:52:55;10.90;99.90
25328;DHT22;13279;51.300;12.394;2022-10-23T04:55:59;10.90;99.90
25328;DHT22;13279;51.300;12.394;2022-10-23T04:58:57;10.90;99.90
25328;DHT22;13279;51.300;12.394;2022-10-23T05:01:25;11.00;99.90
25328;DHT22;13279;51.300;12.394;2022-10-23T05:03:53;11.00;99.90
25328;DHT22;13279;51.300;12.394;2022-10-23T05:06:22;10.90;99.90
25328;DHT22;13279;51.300;12.394;2022-10-23T05:09:06;11.00;99.90
25328;DHT22;13279;51.300;12.394;2022-10-23T05:11:58;10.90;99.90
25328;DHT22;13279;51.300;12.394;2022-10-23T05:14:27;11.00;99.90
25328;DHT22;13279;51.300;12.394;2022-10-23T05:16:56;11.00;99.90
25328;DHT22;13279;51.300;12.394;2022-10-23T05:19:31;11.00;99.90
25328;DHT22;13279;51.300;12.394;2022-10-23T05:22:01;11.00;99.90
25328;DHT22;13279;51.300;12.394;2022-10-23T05:24:45;11.00;99.90
25328;DHT22;13279;51.300;12.394;2022-10-23T05:27:13;11.00;99.90
25328;DHT22;13279;51.300;12.394;2022-10-23T05:29:42;11.00;99.90
25328;DHT22;13279;51.300;12.394;2022-10-23T05:32:13;11.00;99.90
25328;DHT22;13279;51.300;12.394;2022-10-23T05:34:42;11.00;99.90
25328;DHT22;13279;51.300;12.394;2022-10-23T05:37:13;10.90;99.90
25328;DHT22;13279;51.300;12.394;2022-10-23T05:39:41;10.90;99.90
25328;DHT22;13279;51.300;12.394;2022-10-23T05:42:12;10.80;99.90
25328;DHT22;13279;51.300;12.394;2022-10-23T05:44:42;10.90;99.90
25328;DHT22;13279;51.300;12.394;2022-10-23T05:47:20;10.80;99.90
25328;DHT22;13279;51.300;12.394;2022-10-23T05:50:14;10.80;99.90
25328;DHT22;13279;51.300;12.394;2022-10-23T05:52:46;10.80;99.90
25328;DHT22;13279;51.300;12.394;2022-10-23T05:55:30;10.80;99.90
25328;DHT22;13279;51.300;12.394;2022-10-23T05:58:16;10.80;99.90
25328;DHT22;13279;51.300;12.394;2022-10-23T06:01:06;10.80;99.90
25328;DHT22;13279;51.300;12.394;2022-10-23T06:03:51;10.80;99.90
25328;DHT22;13279;51.300;12.394;2022-10-23T06:06:23;10.80;99.90
25328;DHT22;13279;51.300;12.394;2022-10-23T06:08:51;10.80;99.90
25328;DHT22;13279;51.300;12.394;2022-10-23T06:11:21;10.90;99.90
25328;DHT22;13279;51.300;12.394;2022-10-23T06:13:57;10.90;99.90
25328;DHT22;13279;51.300;12.394;2022-10-23T06:16:27;10.90;99.90
25328;DHT22;13279;51.300;12.394;2022-10-23T06:18:54;10.90;99.90
25328;DHT22;13279;51.300;12.394;2022-10-23T06:21:23;11.00;99.90
25328;DHT22;13279;51.300;12.394;2022-10-23T06:23:51;11.00;99.90
25328;DHT22;13279;51.300;12.394;2022-10-23T06:26:19;11.00;99.90
25328;DHT22;13279;51.300;12.394;2022-10-23T06:29:05;11.10;99.90
25328;DHT22;13279;51.300;12.394;2022-10-23T06:31:36;11.10;99.90
25328;DHT22;13279;51.300;12.394;2022-10-23T06:34:04;11.20;99.90
25328;DHT22;13279;51.300;12.394;2022-10-23T06:36:32;11.20;99.90
25328;DHT22;13279;51.300;12.394;2022-10-23T06:39:26;11.30;99.90
25328;DHT22;13279;51.300;12.394;2022-10-23T06:42:23;11.30;99.90
25328;DHT22;13279;51.300;12.394;2022-10-23T06:44:53;11.40;99.90
25328;DHT22;13279;51.300;12.394;2022-10-23T06:47:48;11.50;99.90
25328;DHT22;13279;51.300;12.394;2022-10-23T06:50:35;11.60;99.90
25328;DHT22;13279;51.300;12.394;2022-10-23T06:53:08;11.80;99.90
25328;DHT22;13279;51.300;12.394;2022-10-23T06:55:43;11.80;99.90
25328;DHT22;13279;51.300;12.394;2022-10-23T06:58:10;11.90;99.90
25328;DHT22;13279;51.300;12.394;2022-10-23T07:00:59;11.90;99.90
25328;DHT22;13279;51.300;12.394;2022-10-23T07:03:29;12.00;99.90
25328;DHT22;13279;51.300;12.394;2022-10-23T07:05:59;12.10;99.90
25328;DHT22;13279;51.300;12.394;2022-10-23T07:08:27;12.10;99.90
25328;DHT22;13279;51.300;12.394;2022-10-23T07:10:56;12.20;99.90
25328;DHT22;13279;51.300;12.394;2022-10-23T07:13:24;12.30;99.90
25328;DHT22;13279;51.300;12.394;2022-10-23T07:15:59;12.50;99.90
25328;DHT22;13279;51.300;12.394;2022-10-23T07:18:36;12.60;99.90
25328;DHT22;13279;51.300;12.394;2022-10-23T07:21:22;12.70;99.90
25328;DHT22;13279;51.300;12.394;2022-10-23T07:23:53;12.90;99.90
25328;DHT22;13279;51.300;12.394;2022-10-23T07:26:21;13.00;99.90
25328;DHT22;13279;51.300;12.394;2022-10-23T07:28:48;13.10;99.90
25328;DHT22;13279;51.300;12.394;2022-10-23T07:31:23;13.20;99.90
25328;DHT22;13279;51.300;12.394;2022-10-23T07:34:11;13.30;99.90
25328;DHT22;13279;51.300;12.394;2022-10-23T07:36:39;13.50;99.90
25328;DHT22;13279;51.300;12.394;2022-10-23T07:39:07;13.60;99.90
25328;DHT22;13279;51.300;12.394;2022-10-23T07:41:41;13.70;99.90
25328;DHT22;13279;51.300;12.394;2022-10-23T07:44:09;13.90;99.90
25328;DHT22;13279;51.300;12.394;2022-10-23T07:46:36;14.00;99.90
25328;DHT22;13279;51.300;12.394;2022-10-23T07:49:07;14.10;99.90
25328;DHT22;13279;51.300;12.394;2022-10-23T07:51:38;14.10;99.90
25328;DHT22;13279;51.300;12.394;2022-10-23T07:54:08;14.10;99.90
25328;DHT22;13279;51.300;12.394;2022-10-23T07:57:09;14.10;99.90
25328;DHT22;13279;51.300;12.394;2022-10-23T07:59:53;14.00;99.90
25328;DHT22;13279;51.300;12.394;2022-10-23T08:02:23;14.00;99.90
25328;DHT22;13279;51.300;12.394;2022-10-23T08:04:52;14.00;99.90
25328;DHT22;13279;51.300;12.394;2022-10-23T08:07:35;14.00;99.90
25328;DHT22;13279;51.300;12.394;2022-10-23T08:10:04;14.10;99.90
25328;DHT22;13279;51.300;12.394;2022-10-23T08:12:32;14.10;99.90
25328;DHT22;13279;51.300;12.394;2022-10-23T08:14:59;14.20;99.90
25328;DHT22;13279;51.300;12.394;2022-10-23T08:17:35;14.20;99.90
25328;DHT22;13279;51.300;12.394;2022-10-23T08:20:21;14.30;99.90
25328;DHT22;13279;51.300;12.394;2022-10-23T08:22:51;14.30;99.90
25328;DHT22;13279;51.300;12.394;2022-10-23T08:25:22;14.30;99.90
25328;DHT22;13279;51.300;12.394;2022-10-23T08:27:51;14.30;99.90
25328;DHT22;13279;51.300;12.394;2022-10-23T08:30:19;14.30;99.90
25328;DHT22;13279;51.300;12.394;2022-10-23T08:32:46;14.40;99.90
25328;DHT22;13279;51.300;12.394;2022-10-23T08:35:14;14.40;99.90
25328;DHT22;13279;51.300;12.394;2022-10-23T08:37:42;14.50;99.90
25328;DHT22;13279;51.300;12.394;2022-10-23T08:40:14;14.60;99.90
25328;DHT22;13279;51.300;12.394;2022-10-23T08:43:05;14.70;99.90
25328;DHT22;13279;51.300;12.394;2022-10-23T08:45:41;14.70;99.90
25328;DHT22;13279;51.300;12.394;2022-10-23T08:48:29;14.80;99.90
25328;DHT22;13279;51.300;12.394;2022-10-23T08:51:36;14.80;99.90
25328;DHT22;13279;51.300;12.394;2022-10-23T08:54:12;14.90;99.90
25328;DHT22;13279;51.300;12.394;2022-10-23T08:56:47;15.00;99.90
25328;DHT22;13279;51.300;12.394;2022-10-23T08:59:19;15.20;99.90
25328;DHT22;13279;51.300;12.394;2022-10-23T09:01:56;15.30;99.90
25328;DHT22;13279;51.300;12.394;2022-10-23T09:04:25;15.40;99.90
25328;DHT22;13279;51.300;12.394;2022-10-23T09:06:59;15.70;99.90
25328;DHT22;13279;51.300;12.394;2022-10-23T09:09:45;15.90;99.90
25328;DHT22;13279;51.300;12.394;2022-10-23T09:12:21;16.20;99.90
25328;DHT22;13279;51.300;12.394;2022-10-23T09:15:03;16.70;99.90
25328;DHT22;13279;51.300;12.394;2022-10-23T09:17:35;17.00;99.90
25328;DHT22;13279;51.300;12.394;2022-10-23T09:20:13;17.30;99.90
25328;DHT22;13279;51.300;12.394;2022-10-23T09:22:43;17.60;99.90
25328;DHT22;13279;51.300;12.394;2022-10-23T09:25:18;17.70;99.90
25328;DHT22;13279;51.300;12.394;2022-10-23T09:27:48;17.90;99.90
25328;DHT22;13279;51.300;12.394;2022-10-23T09:30:28;18.00;99.90
25328;DHT22;13279;51.300;12.394;2022-10-23T09:32:56;18.20;99.90
25328;DHT22;13279;51.300;12.394;2022-10-23T09:35:26;18.20;99.90
25328;DHT22;13279;51.300;12.394;2022-10-23T09:37:54;17.80;99.90
25328;DHT22;13279;51.300;12.394;2022-10-23T09:40:30;17.70;99.90
25328;DHT22;13279;51.300;12.394;2022-10-23T09:43:02;17.70;99.90
25328;DHT22;13279;51.300;12.394;2022-10-23T09:45:37;17.70;99.90
25328;DHT22;13279;51.300;12.394;2022-10-23T09:48:14;17.70;99.90
25328;DHT22;13279;51.300;12.394;2022-10-23T09:50:52;17.60;99.90
25328;DHT22;13279;51.300;12.394;2022-10-23T09:53:27;17.60;99.90
25328;DHT22;13279;51.300;12.394;2022-10-23T09:55:58;17.70;99.90
25328;DHT22;13279;51.300;12.394;2022-10-23T09:58:33;17.80;99.90
25328;DHT22;13279;51.300;12.394;2022-10-23T10:01:01;17.90;99.90
25328;DHT22;13279;51.300;12.394;2022-10-23T10:03:48;17.90;99.90
25328;DHT22;13279;51.300;12.394;2022-10-23T10:06:22;17.80;99.90
25328;DHT22;13279;51.300;12.394;2022-10-23T10:08:52;18.00;99.90
25328;DHT22;13279;51.300;12.394;2022-10-23T10:11:25;18.10;99.90
25328;DHT22;13279;51.300;12.394;2022-10-23T10:17:16;18.20;99.90
25328;DHT22;13279;51.300;12.394;2022-10-23T10:20:06;18.30;99.90
25328;DHT22;13279;51.300;12.394;2022-10-23T10:22:41;18.30;99.90
25328;DHT22;13279;51.300;12.394;2022-10-23T10:25:16;18.30;99.90
25328;DHT22;13279;51.300;12.394;2022-10-23T10:27:56;18.30;99.90
25328;DHT22;13279;51.300;12.394;2022-10-23T10:30:34;18.30;99.90
25328;DHT22;13279;51.300;12.394;2022-10-23T10:33:07;18.40;99.90
25328;DHT22;13279;51.300;12.394;2022-10-23T10:35:41;18.40;99.90
25328;DHT22;13279;51.300;12.394;2022-10-23T10:38:31;18.40;99.90
25328;DHT22;13279;51.300;12.394;2022-10-23T10:41:21;18.40;99.90
25328;DHT22;13279;51.300;12.394;2022-10-23T10:44:33;18.40;99.90
25328;DHT22;13279;51.300;12.394;2022-10-23T10:47:12;18.60;99.90
25328;DHT22;13279;51.300;12.394;2022-10-23T10:49:46;18.90;99.90
25328;DHT22;13279;51.300;12.394;2022-10-23T10:52:49;19.30;99.90
25328;DHT22;13279;51.300;12.394;2022-10-23T10:55:25;19.50;99.90
25328;DHT22;13279;51.300;12.394;2022-10-23T10:58:15;19.80;99.90
25328;DHT22;13279;51.300;12.394;2022-10-23T11:00:46;20.00;99.90
25328;DHT22;13279;51.300;12.394;2022-10-23T11:03:27;20.10;99.90
25328;DHT22;13279;51.300;12.394;2022-10-23T11:05:57;20.20;99.90
25328;DHT22;13279;51.300;12.394;2022-10-23T11:08:33;20.30;99.90
25328;DHT22;13279;51.300;12.394;2022-10-23T11:11:05;20.40;99.90
25328;DHT22;13279;51.300;12.394;2022-10-23T11:13:36;20.40;99.90
25328;DHT22;13279;51.300;12.394;2022-10-23T11:16:09;20.30;99.90
25328;DHT22;13279;51.300;12.394;2022-10-23T11:18:43;20.10;99.90
25328;DHT22;13279;51.300;12.394;2022-10-23T11:21:21;19.90;99.90
25328;DHT22;13279;51.300;12.394;2022-10-23T11:24:10;19.90;99.90
25328;DHT22;13279;51.300;12.394;2022-10-23T11:26:52;20.10;99.90
25328;DHT22;13279;51.300;12.394;2022-10-23T11:32:41;20.20;99.90
25328;DHT22;13279;51.300;12.394;2022-10-23T11:35:23;20.10;99.90
25328;DHT22;13279;51.300;12.394;2022-10-23T11:37:59;20.10;99.90
25328;DHT22;13279;51.300;12.394;2022-10-23T11:40:28;20.20;99.90
25328;DHT22;13279;51.300;12.394;2022-10-23T11:42:56;20.20;99.90
25328;DHT22;13279;51.300;12.394;2022-10-23T11:45:32;20.20;99.90
25328;DHT22;13279;51.300;12.394;2022-10-23T11:48:02;20.20;99.90
25328;DHT22;13279;51.300;12.394;2022-10-23T11:50:48;20.30;99.90
25328;DHT22;13279;51.300;12.394;2022-10-23T11:53:36;20.30;99.90
25328;DHT22;13279;51.300;12.394;2022-10-23T11:56:24;20.40;99.90
25328;DHT22;13279;51.300;12.394;2022-10-23T11:58:52;20.40;99.90
25328;DHT22;13279;51.300;12.394;2022-10-23T12:01:29;20.50;99.90
25328;DHT22;13279;51.300;12.394;2022-10-23T12:03:59;20.60;99.90
25328;DHT22;13279;51.300;12.394;2022-10-23T12:06:31;20.50;99.90
25328;DHT22;13279;51.300;12.394;2022-10-23T12:09:07;20.50;99.90
25328;DHT22;13279;51.300;12.394;2022-10-23T12:11:41;20.50;99.90
25328;DHT22;13279;51.300;12.394;2022-10-23T12:14:31;20.70;99.90
25328;DHT22;13279;51.300;12.394;2022-10-23T12:16:59;20.90;99.90
25328;DHT22;13279;51.300;12.394;2022-10-23T12:19:28;21.10;99.90
25328;DHT22;13279;51.300;12.394;2022-10-23T12:22:00;21.50;99.90
25328;DHT22;13279;51.300;12.394;2022-10-23T12:24:46;21.90;99.90
25328;DHT22;13279;51.300;12.394;2022-10-23T12:27:24;22.10;99.90
25328;DHT22;13279;51.300;12.394;2022-10-23T12:30:10;21.90;99.90
25328;DHT22;13279;51.300;12.394;2022-10-23T12:32:55;21.60;99.90
25328;DHT22;13279;51.300;12.394;2022-10-23T12:35:58;21.30;99.90
25328;DHT22;13279;51.300;12.394;2022-10-23T12:38:31;21.10;99.90
25328;DHT22;13279;51.300;12.394;2022-10-23T12:41:04;20.90;99.90
25328;DHT22;13279;51.300;12.394;2022-10-23T12:43:34;20.80;99.90
25328;DHT22;13279;51.300;12.394;2022-10-23T12:46:06;20.90;99.90
25328;DHT22;13279;51.300;12.394;2022-10-23T12:48:47;20.90;99.90
25328;DHT22;13279;51.300;12.394;2022-10-23T12:51:22;21.20;99.90
25328;DHT22;13279;51.300;12.394;2022-10-23T12:53:51;21.40;99.90
25328;DHT22;13279;51.300;12.394;2022-10-23T12:56:19;21.50;99.90
25328;DHT22;13279;51.300;12.394;2022-10-23T12:58:49;21.50;99.90
25328;DHT22;13279;51.300;12.394;2022-10-23T13:01:23;21.40;99.90
25328;DHT22;13279;51.300;12.394;2022-10-23T13:03:56;21.30;99.90
25328;DHT22;13279;51.300;12.394;2022-10-23T13:06:25;21.30;99.90
25328;DHT22;13279;51.300;12.394;2022-10-23T13:08:55;21.30;99.90
25328;DHT22;13279;51.300;12.394;2022-10-23T13:11:54;21.20;99.90
25328;DHT22;13279;51.300;12.394;2022-10-23T13:14:33;21.10;99.90
25328;DHT22;13279;51.300;12.394;2022-10-23T13:17:03;21.10;99.90
25328;DHT22;13279;51.300;12.394;2022-10-23T13:19:31;21.20;99.90
25328;DHT22;13279;51.300;12.394;2022-10-23T13:21:59;21.20;99.90
25328;DHT22;13279;51.300;12.394;2022-10-23T13:24:29;21.20;99.90
25328;DHT22;13279;51.300;12.394;2022-10-23T13:26:57;21.10;99.90
25328;DHT22;13279;51.300;12.394;2022-10-23T13:29:27;20.90;99.90
25328;DHT22;13279;51.300;12.394;2022-10-23T13:31:55;20.80;99.90
25328;DHT22;13279;51.300;12.394;2022-10-23T13:34:25;20.60;99.90
25328;DHT22;13279;51.300;12.394;2022-10-23T13:37:00;20.50;99.90
25328;DHT22;13279;51.300;12.394;2022-10-23T13:39:30;20.40;99.90
25328;DHT22;13279;51.300;12.394;2022-10-23T13:42:07;20.50;99.90
25328;DHT22;13279;51.300;12.394;2022-10-23T13:44:35;20.50;99.90
25328;DHT22;13279;51.300;12.394;2022-10-23T13:47:03;20.50;99.90
25328;DHT22;13279;51.300;12.394;2022-10-23T13:49:31;20.50;99.90
25328;DHT22;13279;51.300;12.394;2022-10-23T13:51:59;20.40;99.90
25328;DHT22;13279;51.300;12.394;2022-10-23T13:54:28;20.30;99.90
25328;DHT22;13279;51.300;12.394;2022-10-23T13:56:56;20.20;99.90
25328;DHT22;13279;51.300;12.394;2022-10-23T13:59:24;20.10;99.90
25328;DHT22;13279;51.300;12.394;2022-10-23T14:01:51;20.00;99.90
25328;DHT22;13279;51.300;12.394;2022-10-23T14:04:19;19.90;99.90
25328;DHT22;13279;51.300;12.394;2022-10-23T14:06:47;19.80;99.90
25328;DHT22;13279;51.300;12.394;2022-10-23T14:09:17;19.80;99.90
25328;DHT22;13279;51.300;12.394;2022-10-23T14:11:46;19.80;99.90
25328;DHT22;13279;51.300;12.394;2022-10-23T14:14:13;19.70;99.90
25328;DHT22;13279;51.300;12.394;2022-10-23T14:16:40;19.60;99.90
25328;DHT22;13279;51.300;12.394;2022-10-23T14:19:09;19.60;99.90
25328;DHT22;13279;51.300;12.394;2022-10-23T14:21:37;19.50;99.90
25328;DHT22;13279;51.300;12.394;2022-10-23T14:24:05;19.40;99.90
25328;DHT22;13279;51.300;12.394;2022-10-23T14:26:32;19.30;99.90
25328;DHT22;13279;51.300;12.394;2022-10-23T14:29:01;19.30;99.90
25328;DHT22;13279;51.300;12.394;2022-10-23T14:31:29;19.20;99.90
25328;DHT22;13279;51.300;12.394;2022-10-23T14:33:57;19.20;99.90
25328;DHT22;13279;51.300;12.394;2022-10-23T14:36:26;19.10;99.90
25328;DHT22;13279;51.300;12.394;2022-10-23T14:38:55;19.10;99.90
25328;DHT22;13279;51.300;12.394;2022-10-23T14:41:23;19.10;99.90
25328;DHT22;13279;51.300;12.394;2022-10-23T14:43:50;19.00;99.90
25328;DHT22;13279;51.300;12.394;2022-10-23T14:46:21;18.90;99.90
25328;DHT22;13279;51.300;12.394;2022-10-23T14:48:49;18.90;99.90
25328;DHT22;13279;51.300;12.394;2022-10-23T14:51:18;18.80;99.90
25328;DHT22;13279;51.300;12.394;2022-10-23T14:53:46;18.70;99.90
25328;DHT22;13279;51.300;12.394;2022-10-23T14:56:14;18.70;99.90
25328;DHT22;13279;51.300;12.394;2022-10-23T14:58:42;18.70;99.90
25328;DHT22;13279;51.300;12.394;2022-10-23T15:01:09;18.70;99.90
25328;DHT22;13279;51.300;12.394;2022-10-23T15:03:38;18.70;99.90
25328;DHT22;13279;51.300;12.394;2022-10-23T15:06:06;18.60;99.90
25328;DHT22;13279;51.300;12.394;2022-10-23T15:08:34;18.60;99.90
25328;DHT22;13279;51.300;12.394;2022-10-23T15:11:03;18.50;99.90
25328;DHT22;13279;51.300;12.394;2022-10-23T15:13:31;18.50;99.90
25328;DHT22;13279;51.300;12.394;2022-10-23T15:16:02;18.40;99.90
25328;DHT22;13279;51.300;12.394;2022-10-23T15:18:30;18.30;99.90
25328;DHT22;13279;51.300;12.394;2022-10-23T15:20:59;18.30;99.90
25328;DHT22;13279;51.300;12.394;2022-10-23T15:23:27;18.20;99.90
25328;DHT22;13279;51.300;12.394;2022-10-23T15:25:55;18.20;99.90
25328;DHT22;13279;51.300;12.394;2022-10-23T15:28:23;18.10;99.90
25328;DHT22;13279;51.300;12.394;2022-10-23T15:30:51;18.10;99.90
25328;DHT22;13279;51.300;12.394;2022-10-23T15:33:18;18.10;99.90
25328;DHT22;13279;51.300;12.394;2022-10-23T15:35:46;18.00;99.90
25328;DHT22;13279;51.300;12.394;2022-10-23T15:38:15;17.90;99.90
25328;DHT22;13279;51.300;12.394;2022-10-23T15:40:43;17.90;99.90
25328;DHT22;13279;51.300;12.394;2022-10-23T15:43:11;17.90;99.90
25328;DHT22;13279;51.300;12.394;2022-10-23T15:45:39;17.80;99.90
25328;DHT22;13279;51.300;12.394;2022-10-23T15:48:06;17.80;99.90
25328;DHT22;13279;51.300;12.394;2022-10-23T15:50:34;17.70;99.90
25328;DHT22;13279;51.300;12.394;2022-10-23T15:53:02;17.70;99.90
25328;DHT22;13279;51.300;12.394;2022-10-23T15:55:31;17.70;99.90
25328;DHT22;13279;51.300;12.394;2022-10-23T15:57:58;17.60;99.90
25328;DHT22;13279;51.300;12.394;2022-10-23T16:00:29;17.60;99.90